NCAR-RAP Real-Time Weather Data

Output produced by METARs form (27 July 2016  19:10 UTC)
found at http://weather.rap.ucar.edu/surface/
 
Conditions at: KALB observed 27 July 2016  18:51 UTC
Temperature: 31.7°C (89°F)
Dewpoint: 13.3°C (56°F) [RH = 33%]
Pressure (altimeter): 29.92 inches Hg (1013.3 mb)
[Sea-level pressure: 1012.9 mb]
Winds: from the WNW (290 degrees) at 7 MPH (6 knots; 3.1 m/s)
gusting to 17 MPH (15 knots; 7.8 m/s)
Visibility: 10 or more miles (16+ km)
Ceiling: at least 12,000 feet AGL
Clouds: few clouds at 7000 feet AGL
Present Weather: no significant weather observed at this time
KALB 271851Z 29006G15KT 10SM FEW070 32/13 A2992 RMK AO2 SLP129 T03170133

Conditions at: KALB observed 27 July 2016  17:51 UTC
Temperature: 31.1°C (88°F)
Dewpoint: 13.3°C (56°F) [RH = 34%]
Pressure (altimeter): 29.93 inches Hg (1013.6 mb)
[Sea-level pressure: 1013.3 mb]
Winds: from the WNW (290 degrees) at 7 MPH (6 knots; 3.1 m/s)
Visibility: 10 or more miles (16+ km)
Ceiling: at least 12,000 feet AGL
Clouds: few clouds at 6500 feet AGL
Present Weather: no significant weather observed at this time
KALB 271751Z 29006KT 10SM FEW065 31/13 A2993 RMK AO2 SLP133 T03110133 10311 20222 58010

Conditions at: KALB observed 27 July 2016  16:51 UTC
Temperature: 28.9°C (84°F)
Dewpoint: 15.0°C (59°F) [RH = 43%]
Pressure (altimeter): 29.94 inches Hg (1014.0 mb)
[Sea-level pressure: 1013.9 mb]
Winds: from the W (280 degrees) at 12 MPH (10 knots; 5.2 m/s)
Visibility: 10 or more miles (16+ km)
Ceiling: at least 12,000 feet AGL
Clouds: scattered clouds at 6000 feet AGL
Present Weather: no significant weather observed at this time
KALB 271651Z 28010KT 10SM SCT060 29/15 A2994 RMK AO2 SLP139 SCT V BKN T02890150

Conditions at: KALB observed 27 July 2016  15:51 UTC
Temperature: 28.9°C (84°F)
Dewpoint: 16.1°C (61°F) [RH = 46%]
Pressure (altimeter): 29.95 inches Hg (1014.3 mb)
[Sea-level pressure: 1013.9 mb]
Winds: calm
Visibility: 10 or more miles (16+ km)
Ceiling: at least 12,000 feet AGL
Clouds: few clouds at 5000 feet AGL
Present Weather: no significant weather observed at this time
KALB 271551Z 00000KT 10SM FEW050 29/16 A2995 RMK AO2 SLP139 T02890161

Conditions at: KALB observed 27 July 2016  14:51 UTC
Temperature: 27.2°C (81°F)
Dewpoint: 16.1°C (61°F) [RH = 51%]
Pressure (altimeter): 29.96 inches Hg (1014.6 mb)
[Sea-level pressure: 1014.3 mb]
Winds: calm
Visibility: 10 or more miles (16+ km)
Ceiling: at least 12,000 feet AGL
Clouds: few clouds at 4500 feet AGL
Present Weather: no significant weather observed at this time
KALB 271451Z 00000KT 10SM FEW045 27/16 A2996 RMK AO2 SLP143 T02720161 58004

Conditions at: KALB observed 27 July 2016  13:51 UTC
Temperature: 26.1°C (79°F)
Dewpoint: 15.6°C (60°F) [RH = 52%]
Pressure (altimeter): 29.96 inches Hg (1014.6 mb)
[Sea-level pressure: 1014.5 mb]
Winds: from the W (260 degrees) at 6 MPH (5 knots; 2.6 m/s)
Visibility: 10 or more miles (16+ km)
Ceiling: at least 12,000 feet AGL
Clouds: sky clear below 12,000 feet AGL
Present Weather: no significant weather observed at this time
KALB 271351Z 26005KT 10SM CLR 26/16 A2996 RMK AO2 SLP145 T02610156

Conditions at: KALB observed 27 July 2016  12:51 UTC
Temperature: 25.0°C (77°F)
Dewpoint: 15.0°C (59°F) [RH = 54%]
Pressure (altimeter): 29.97 inches Hg (1015.0 mb)
[Sea-level pressure: 1014.7 mb]
Winds: variable direction winds at 3 MPH (3 knots; 1.6 m/s)
Visibility: 10 or more miles (16+ km)
Ceiling: at least 12,000 feet AGL
Clouds: sky clear below 12,000 feet AGL
Present Weather: no significant weather observed at this time
KALB 271251Z VRB03KT 10SM CLR 25/15 A2997 RMK AO2 SLP147 T02500150

Conditions at: KALB observed 27 July 2016  11:51 UTC
Temperature: 22.2°C (72°F)
Dewpoint: 16.7°C (62°F) [RH = 71%]
Pressure (altimeter): 29.97 inches Hg (1015.0 mb)
[Sea-level pressure: 1014.7 mb]
Winds: from the SSW (200 degrees) at 5 MPH (4 knots; 2.1 m/s)
Visibility: 10 or more miles (16+ km)
Ceiling: at least 12,000 feet AGL
Clouds: sky clear below 12,000 feet AGL
Present Weather: no significant weather observed at this time
KALB 271151Z 20004KT 10SM CLR 22/17 A2997 RMK AO2 SLP147 T02220167 10222 20178 51011

Conditions at: KALB observed 27 July 2016  10:51 UTC
Temperature: 19.4°C (67°F)
Dewpoint: 16.1°C (61°F) [RH = 81%]
Pressure (altimeter): 29.97 inches Hg (1015.0 mb)
[Sea-level pressure: 1014.5 mb]
Winds: calm
Visibility: 10 or more miles (16+ km)
Ceiling: at least 12,000 feet AGL
Clouds: few clouds at 6500 feet AGL
Present Weather: no significant weather observed at this time
KALB 271051Z 00000KT 10SM FEW065 19/16 A2997 RMK AO2 SLP145 T01940161

Conditions at: KALB observed 27 July 2016  09:51 UTC
Temperature: 17.8°C (64°F)
Dewpoint: 15.0°C (59°F) [RH = 84%]
Pressure (altimeter): 29.95 inches Hg (1014.3 mb)
[Sea-level pressure: 1014.1 mb]
Winds: calm
Visibility: 10 or more miles (16+ km)
Ceiling: at least 12,000 feet AGL
Clouds: scattered clouds at 6500 feet AGL
Present Weather: no significant weather observed at this time
KALB 270951Z 00000KT 10SM SCT065 18/15 A2995 RMK AO2 SLP141 T01780150

Conditions at: KALB observed 27 July 2016  08:51 UTC
Temperature: 18.9°C (66°F)
Dewpoint: 15.0°C (59°F) [RH = 78%]
Pressure (altimeter): 29.94 inches Hg (1014.0 mb)
[Sea-level pressure: 1013.6 mb]
Winds: from the SSW (200 degrees) at 3 MPH (3 knots; 1.6 m/s)
Visibility: 10 or more miles (16+ km)
Ceiling: at least 12,000 feet AGL
Clouds: scattered clouds at 6500 feet AGL
Present Weather: no significant weather observed at this time
KALB 270851Z 20003KT 10SM SCT065 19/15 A2994 RMK AO2 SLP136 T01890150 58004

Conditions at: KALB observed 27 July 2016  07:51 UTC
Temperature: 17.8°C (64°F)
Dewpoint: 15.0°C (59°F) [RH = 84%]
Pressure (altimeter): 29.95 inches Hg (1014.3 mb)
[Sea-level pressure: 1014.0 mb]
Winds: calm
Visibility: 10 or more miles (16+ km)
Ceiling: 7000 feet AGL
Clouds: broken clouds at 7000 feet AGL
Present Weather: no significant weather observed at this time
KALB 270751Z 00000KT 10SM BKN070 18/15 A2995 RMK AO2 SLP140 T01780150